createdAt,value
2017-08-23T00:00:09.954Z,0
2017-08-23T00:01:09.942Z,0
2017-08-23T00:02:09.623Z,0
2017-08-23T00:03:09.921Z,0
2017-08-23T00:04:09.607Z,0
2017-08-23T00:05:09.581Z,0
2017-08-23T00:06:09.869Z,0
2017-08-23T00:07:09.555Z,0
2017-08-23T00:08:09.547Z,0
2017-08-23T00:09:09.857Z,0
2017-08-23T00:10:09.819Z,0
2017-08-23T00:11:09.497Z,0
2017-08-23T00:12:09.200Z,0
2017-08-23T00:13:09.796Z,0
2017-08-23T00:14:09.778Z,0
2017-08-23T00:15:09.789Z,0
2017-08-23T00:16:09.437Z,0
2017-08-23T00:17:09.735Z,0
2017-08-23T00:18:09.705Z,0
2017-08-23T00:19:09.698Z,0
2017-08-23T00:20:09.387Z,0
2017-08-23T00:21:09.682Z,0
2017-08-23T00:22:09.653Z,0
2017-08-23T00:23:09.649Z,0
2017-08-23T00:24:09.026Z,0
2017-08-23T00:25:09.624Z,0
2017-08-23T00:26:09.606Z,0
2017-08-23T00:27:09.597Z,0
2017-08-23T00:28:09.589Z,0
2017-08-23T00:29:09.576Z,0
2017-08-23T00:30:09.255Z,0
2017-08-23T00:31:09.537Z,0
2017-08-23T00:32:09.220Z,0
2017-08-23T00:33:09.526Z,0
2017-08-23T00:34:09.511Z,0
2017-08-23T00:35:09.485Z,0
2017-08-23T00:36:09.181Z,0
2017-08-23T00:37:09.158Z,0
2017-08-23T00:38:09.451Z,0
2017-08-23T00:39:09.146Z,0
2017-08-23T00:40:09.130Z,0
2017-08-23T00:41:09.113Z,0
2017-08-23T00:42:09.101Z,0
2017-08-23T00:43:09.074Z,0
2017-08-23T00:44:09.369Z,0
2017-08-23T00:45:09.361Z,0
2017-08-23T00:46:09.333Z,0
2017-08-23T00:47:09.351Z,0
2017-08-23T00:48:08.410Z,0
2017-08-23T00:49:09.308Z,0
2017-08-23T00:50:09.285Z,0
2017-08-23T00:51:09.293Z,0
2017-08-23T00:52:09.274Z,0
2017-08-23T00:53:08.957Z,0
2017-08-23T00:54:09.241Z,0
2017-08-23T00:55:09.226Z,0
2017-08-23T00:56:09.227Z,0
2017-08-23T00:57:09.217Z,0
2017-08-23T00:58:09.192Z,0
2017-08-23T00:59:09.193Z,0
2017-08-23T01:00:09.168Z,0
2017-08-23T01:01:09.148Z,0
2017-08-23T01:02:09.135Z,0
2017-08-23T01:03:09.127Z,0
2017-08-23T01:04:09.110Z,0
2017-08-23T01:05:09.102Z,0
2017-08-23T01:06:09.088Z,0
2017-08-23T01:07:09.083Z,0
2017-08-23T01:08:08.766Z,0
2017-08-23T01:09:09.048Z,0
2017-08-23T01:10:09.050Z,0
2017-08-23T01:11:09.021Z,0
2017-08-23T01:12:08.999Z,0
2017-08-23T01:13:09.001Z,0
2017-08-23T01:14:08.984Z,0
2017-08-23T01:15:08.969Z,0
2017-08-23T01:16:08.956Z,0
2017-08-23T01:17:08.965Z,0
2017-08-23T01:18:08.933Z,0
2017-08-23T01:19:08.928Z,0
2017-08-23T01:20:08.922Z,0
2017-08-23T01:21:08.909Z,0
2017-08-23T01:22:08.886Z,0
2017-08-23T01:23:08.558Z,0
2017-08-23T01:24:08.552Z,0
2017-08-23T01:25:08.885Z,0
2017-08-23T01:26:08.526Z,0
2017-08-23T01:27:08.213Z,0
2017-08-23T01:28:08.820Z,0
2017-08-23T01:29:08.792Z,0
2017-08-23T01:30:08.788Z,0
2017-08-23T01:31:08.774Z,0
2017-08-23T01:32:08.754Z,0
2017-08-23T01:33:08.449Z,0
2017-08-23T01:34:08.734Z,0
2017-08-23T01:35:08.724Z,0
2017-08-23T01:36:08.706Z,0
2017-08-23T01:37:08.692Z,0
2017-08-23T01:38:08.702Z,0
2017-08-23T01:39:08.663Z,0
2017-08-23T01:40:08.655Z,0
2017-08-23T01:41:08.659Z,0
2017-08-23T01:42:08.649Z,0
2017-08-23T01:43:08.616Z,0
2017-08-23T01:44:08.295Z,0
2017-08-23T01:45:08.299Z,0
2017-08-23T01:46:08.303Z,0
2017-08-23T01:47:08.261Z,0
2017-08-23T01:48:08.241Z,0
2017-08-23T01:49:08.550Z,0
2017-08-23T01:50:08.551Z,0
2017-08-23T01:51:08.517Z,0
2017-08-23T01:52:08.502Z,0
2017-08-23T01:53:08.484Z,0
2017-08-23T01:54:08.174Z,0
2017-08-23T01:55:08.480Z,0
2017-08-23T01:56:08.149Z,0
2017-08-23T01:57:07.829Z,0
2017-08-23T01:58:08.135Z,0
2017-08-23T01:59:08.144Z,0
2017-08-23T02:00:07.785Z,0
2017-08-23T02:01:08.081Z,0
2017-08-23T02:02:08.373Z,0
2017-08-23T02:03:08.365Z,0
2017-08-23T02:04:08.353Z,0
2017-08-23T02:05:08.329Z,0
2017-08-23T02:06:08.320Z,0
2017-08-23T02:07:08.318Z,0
2017-08-23T02:08:08.295Z,0
2017-08-23T02:09:08.283Z,0
2017-08-23T02:10:08.280Z,0
2017-08-23T02:11:07.963Z,0
2017-08-23T02:12:07.941Z,0
2017-08-23T02:13:08.228Z,0
2017-08-23T02:14:08.222Z,0
2017-08-23T02:15:07.903Z,0
2017-08-23T02:16:08.209Z,0
2017-08-23T02:17:07.898Z,0
2017-08-23T02:18:08.180Z,0
2017-08-23T02:19:08.158Z,0
2017-08-23T02:20:08.144Z,0
2017-08-23T02:21:08.151Z,0
2017-08-23T02:22:08.120Z,0
2017-08-23T02:23:08.108Z,0
2017-08-23T02:24:07.783Z,0
2017-08-23T02:25:07.789Z,0
2017-08-23T02:26:08.066Z,0
2017-08-23T02:27:08.062Z,0
2017-08-23T02:28:07.740Z,0
2017-08-23T02:29:08.024Z,0
2017-08-23T02:30:07.406Z,0
2017-08-23T02:31:07.701Z,0
2017-08-23T02:32:07.986Z,0
2017-08-23T02:33:07.995Z,0
2017-08-23T02:34:07.952Z,0
2017-08-23T02:35:07.958Z,0
2017-08-23T02:36:07.927Z,0
2017-08-23T02:37:07.912Z,0
2017-08-23T02:38:07.923Z,0
2017-08-23T02:39:07.894Z,0
2017-08-23T02:40:07.587Z,0
2017-08-23T02:41:07.863Z,0
2017-08-23T02:42:07.542Z,0
2017-08-23T02:43:07.833Z,0
2017-08-23T02:44:07.852Z,0
2017-08-23T02:45:07.821Z,0
2017-08-23T02:46:07.797Z,0
2017-08-23T02:47:07.801Z,0
2017-08-23T02:48:07.761Z,0
2017-08-23T02:49:07.775Z,0
2017-08-23T02:50:07.761Z,0
2017-08-23T02:51:07.727Z,0
2017-08-23T02:52:07.730Z,0
2017-08-23T02:53:07.719Z,0
2017-08-23T02:54:07.387Z,0
2017-08-23T02:55:07.682Z,0
2017-08-23T02:56:07.675Z,0
2017-08-23T02:57:07.652Z,0
2017-08-23T02:58:07.636Z,0
2017-08-23T02:59:07.635Z,0
2017-08-23T03:00:07.310Z,0
2017-08-23T03:01:07.604Z,0
2017-08-23T03:02:07.598Z,0
2017-08-23T03:03:07.578Z,0
2017-08-23T03:04:07.562Z,0
2017-08-23T03:05:07.244Z,0
2017-08-23T03:06:07.534Z,0
2017-08-23T03:07:07.518Z,0
2017-08-23T03:08:07.226Z,0
2017-08-23T03:09:07.187Z,0
2017-08-23T03:10:07.477Z,0
2017-08-23T03:11:07.166Z,0
2017-08-23T03:12:07.153Z,0
2017-08-23T03:13:07.435Z,0
2017-08-23T03:14:07.125Z,0
2017-08-23T03:15:07.435Z,0
2017-08-23T03:16:07.102Z,0
2017-08-23T03:17:07.385Z,0
2017-08-23T03:18:07.070Z,0
2017-08-23T03:19:06.758Z,0
2017-08-23T03:20:07.048Z,0
2017-08-23T03:21:06.734Z,0
2017-08-23T03:22:07.008Z,0
2017-08-23T03:23:07.315Z,0
2017-08-23T03:24:07.009Z,0
2017-08-23T03:25:06.988Z,0
2017-08-23T03:26:06.968Z,0
2017-08-23T03:27:07.253Z,0
2017-08-23T03:28:07.251Z,0
2017-08-23T03:29:06.936Z,0
2017-08-23T03:30:07.236Z,0
2017-08-23T03:31:06.914Z,0
2017-08-23T03:32:07.200Z,0
2017-08-23T03:33:07.196Z,0
2017-08-23T03:34:06.859Z,0
2017-08-23T03:35:07.161Z,0
2017-08-23T03:36:07.129Z,0
2017-08-23T03:37:07.131Z,0
2017-08-23T03:38:07.119Z,0
2017-08-23T03:39:07.121Z,0
2017-08-23T03:40:07.084Z,0
2017-08-23T03:41:07.077Z,0
2017-08-23T03:42:07.056Z,0
2017-08-23T03:43:07.059Z,0
2017-08-23T03:44:07.034Z,0
2017-08-23T03:45:07.021Z,0
2017-08-23T03:46:06.710Z,0
2017-08-23T03:47:06.998Z,0
2017-08-23T03:48:06.986Z,0
2017-08-23T03:49:06.959Z,4
2017-08-23T03:50:06.666Z,4
2017-08-23T03:51:06.645Z,0
2017-08-23T03:52:06.626Z,0
2017-08-23T03:53:06.942Z,4
2017-08-23T03:54:06.609Z,4
2017-08-23T03:55:06.596Z,8
2017-08-23T03:56:06.875Z,4
2017-08-23T03:57:06.860Z,8
2017-08-23T03:58:06.849Z,4
2017-08-23T03:59:06.838Z,8
2017-08-23T04:00:06.525Z,12
2017-08-23T04:01:06.821Z,12
2017-08-23T04:02:06.810Z,16
2017-08-23T04:03:06.802Z,16
2017-08-23T04:04:06.784Z,16
2017-08-23T04:05:06.746Z,20
2017-08-23T04:06:06.749Z,28
2017-08-23T04:07:06.733Z,32
2017-08-23T04:08:06.723Z,36
2017-08-23T04:09:06.695Z,48
2017-08-23T04:10:06.700Z,56
2017-08-23T04:11:06.682Z,72
2017-08-23T04:12:06.673Z,80
2017-08-23T04:13:06.695Z,96
2017-08-23T04:14:06.645Z,116
2017-08-23T04:15:06.338Z,140
2017-08-23T04:16:06.637Z,168
2017-08-23T04:17:06.293Z,200
2017-08-23T04:18:06.582Z,232
2017-08-23T04:19:06.591Z,276
2017-08-23T04:20:06.561Z,324
2017-08-23T04:21:06.558Z,376
2017-08-23T04:22:06.542Z,424
2017-08-23T04:23:06.520Z,476
2017-08-23T04:24:06.519Z,532
2017-08-23T04:25:06.492Z,596
2017-08-23T04:26:06.178Z,660
2017-08-23T04:27:06.468Z,732
2017-08-23T04:28:06.463Z,796
2017-08-23T04:29:06.150Z,876
2017-08-23T04:30:06.159Z,976
2017-08-23T04:31:06.118Z,1064
2017-08-23T04:32:06.422Z,1148
2017-08-23T04:33:06.121Z,1228
2017-08-23T04:34:06.385Z,1312
2017-08-23T04:35:06.381Z,1356
2017-08-23T04:36:06.365Z,1428
2017-08-23T04:37:06.340Z,1504
2017-08-23T04:38:06.028Z,1560
2017-08-23T04:39:06.316Z,1624
2017-08-23T04:40:06.305Z,1688
2017-08-23T04:41:05.985Z,1784
2017-08-23T04:42:06.272Z,1916
2017-08-23T04:43:06.273Z,2028
2017-08-23T04:44:05.952Z,2192
2017-08-23T04:45:06.235Z,2380
2017-08-23T04:46:06.233Z,2572
2017-08-23T04:47:06.227Z,2728
2017-08-23T04:48:06.194Z,2788
2017-08-23T04:49:05.574Z,2812
2017-08-23T04:50:05.873Z,2900
2017-08-23T04:51:06.153Z,3072
2017-08-23T04:52:06.146Z,3388
2017-08-23T04:53:05.828Z,3720
2017-08-23T04:54:06.120Z,3792
2017-08-23T04:55:06.103Z,3584
2017-08-23T04:56:06.095Z,3744
2017-08-23T04:57:06.081Z,3364
2017-08-23T04:58:06.073Z,3412
2017-08-23T04:59:06.055Z,3620
2017-08-23T05:00:06.051Z,3852
2017-08-23T05:01:06.021Z,4000
2017-08-23T05:02:06.013Z,4012
2017-08-23T05:03:06.013Z,4044
2017-08-23T05:04:05.993Z,4080
2017-08-23T05:05:05.974Z,4248
2017-08-23T05:06:05.982Z,4676
2017-08-23T05:07:05.974Z,4880
2017-08-23T05:08:05.951Z,5352
2017-08-23T05:09:05.940Z,8240
2017-08-23T05:10:05.923Z,6616
2017-08-23T05:11:05.904Z,7228
2017-08-23T05:12:05.893Z,6560
2017-08-23T05:13:05.573Z,6964
2017-08-23T05:14:05.857Z,9220
2017-08-23T05:15:05.253Z,8300
2017-08-23T05:16:05.834Z,7200
2017-08-23T05:17:05.835Z,7060
2017-08-23T05:18:05.201Z,7360
2017-08-23T05:19:05.498Z,4660
2017-08-23T05:20:04.876Z,9408
2017-08-23T05:21:05.460Z,6724
2017-08-23T05:22:05.462Z,6720
2017-08-23T05:23:05.435Z,4652
2017-08-23T05:24:05.431Z,4572
2017-08-23T05:25:05.414Z,5564
2017-08-23T05:26:05.415Z,9220
2017-08-23T05:27:05.700Z,4708
2017-08-23T05:28:05.683Z,4732
2017-08-23T05:29:05.673Z,4748
2017-08-23T05:30:05.046Z,4852
2017-08-23T05:31:05.656Z,5116
2017-08-23T05:32:05.637Z,12756
2017-08-23T05:33:05.313Z,16224
2017-08-23T05:34:05.608Z,14184
2017-08-23T05:35:05.607Z,14788
2017-08-23T05:36:05.275Z,14836
2017-08-23T05:37:05.277Z,14360
2017-08-23T05:38:05.257Z,15808
2017-08-23T05:39:05.551Z,16192
2017-08-23T05:40:05.541Z,15904
2017-08-23T05:41:05.217Z,9860
2017-08-23T05:42:05.196Z,8060
2017-08-23T05:43:05.486Z,7552
2017-08-23T05:44:05.492Z,17856
2017-08-23T05:45:04.862Z,17536
2017-08-23T05:46:05.151Z,15648
2017-08-23T05:47:04.839Z,16288
2017-08-23T05:48:04.822Z,15840
2017-08-23T05:49:05.114Z,18432
2017-08-23T05:50:05.096Z,18752
2017-08-23T05:51:05.110Z,17920
2017-08-23T05:52:05.070Z,15936
2017-08-23T05:53:05.373Z,19776
2017-08-23T05:54:05.040Z,19360
2017-08-23T05:55:05.347Z,18464
2017-08-23T05:56:05.031Z,20896
2017-08-23T05:57:05.312Z,22368
2017-08-23T05:58:04.993Z,20064
2017-08-23T05:59:04.973Z,20960
2017-08-23T06:00:05.279Z,21152
2017-08-23T06:01:04.952Z,19296
2017-08-23T06:02:05.241Z,24640
2017-08-23T06:03:04.946Z,17312
2017-08-23T06:04:05.228Z,9760
2017-08-23T06:05:05.212Z,24800
2017-08-23T06:06:05.206Z,21056
2017-08-23T06:07:04.894Z,19808
2017-08-23T06:08:04.858Z,32384
2017-08-23T06:09:05.163Z,30848
2017-08-23T06:10:05.152Z,30240
2017-08-23T06:11:05.127Z,35008
2017-08-23T06:12:04.821Z,19168
2017-08-23T06:13:05.120Z,31424
2017-08-23T06:14:05.102Z,37248
2017-08-23T06:15:04.781Z,20096
2017-08-23T06:16:05.088Z,23040
2017-08-23T06:17:05.097Z,15540
2017-08-23T06:18:05.058Z,37024
2017-08-23T06:19:05.046Z,37376
2017-08-23T06:20:05.039Z,36800
2017-08-23T06:21:05.016Z,43808
2017-08-23T06:22:05.010Z,18592
2017-08-23T06:23:04.984Z,43840
2017-08-23T06:24:04.978Z,19712
2017-08-23T06:25:04.655Z,30240
2017-08-23T06:26:04.671Z,24320
2017-08-23T06:27:04.928Z,26176
2017-08-23T06:28:04.920Z,29984
2017-08-23T06:29:04.908Z,38176
2017-08-23T06:30:04.911Z,40640
2017-08-23T06:31:04.589Z,36320
2017-08-23T06:32:04.893Z,44576
2017-08-23T06:33:04.868Z,24032
2017-08-23T06:34:04.848Z,35680
2017-08-23T06:35:04.842Z,41600
2017-08-23T06:36:04.219Z,39680
2017-08-23T06:37:04.812Z,41600
2017-08-23T06:38:04.795Z,33216
2017-08-23T06:39:04.785Z,38176
2017-08-23T06:40:04.771Z,43744
2017-08-23T06:41:04.769Z,40864
2017-08-23T06:42:04.758Z,40256
2017-08-23T06:43:04.731Z,34176
2017-08-23T06:44:04.715Z,30784
2017-08-23T06:45:04.715Z,33888
2017-08-23T06:46:04.713Z,37952
2017-08-23T06:47:04.683Z,37696
2017-08-23T06:48:04.372Z,32416
2017-08-23T06:49:10.065Z,36096
2017-08-23T06:50:04.665Z,36928
2017-08-23T06:51:04.645Z,32480
2017-08-23T06:52:04.325Z,36256
2017-08-23T06:53:04.320Z,38624
2017-08-23T06:54:04.614Z,37024
2017-08-23T06:55:04.605Z,36224
2017-08-23T06:56:04.273Z,37216
2017-08-23T06:57:04.568Z,43136
2017-08-23T06:58:04.254Z,50144
2017-08-23T06:59:04.559Z,53568
2017-08-23T07:00:04.240Z,37408
2017-08-23T07:01:04.547Z,23680
2017-08-23T07:02:04.211Z,22816
2017-08-23T07:03:04.504Z,24032
2017-08-23T07:04:04.498Z,28000
2017-08-23T07:05:04.164Z,39456
2017-08-23T07:06:04.169Z,54528
2017-08-23T07:07:04.156Z,55136
2017-08-23T07:08:04.444Z,47296
2017-08-23T07:09:04.132Z,40800
2017-08-23T07:10:04.123Z,39808
2017-08-23T07:11:04.420Z,41024
2017-08-23T07:12:04.107Z,47104
2017-08-23T07:13:04.087Z,50592
2017-08-23T07:14:04.072Z,48928
2017-08-23T07:15:04.072Z,53408
2017-08-23T07:16:04.347Z,58688
2017-08-23T07:17:04.050Z,62656
2017-08-23T07:18:04.031Z,65664
2017-08-23T07:19:04.333Z,57024
2017-08-23T07:20:04.011Z,49632
2017-08-23T07:21:04.000Z,65472
2017-08-23T07:22:03.984Z,68576
2017-08-23T07:23:04.289Z,65408
2017-08-23T07:24:04.261Z,57920
2017-08-23T07:25:03.968Z,49152
2017-08-23T07:26:04.288Z,55840
2017-08-23T07:27:04.232Z,27328
2017-08-23T07:28:03.929Z,39744
2017-08-23T07:29:04.233Z,50144
2017-08-23T07:30:04.225Z,73152
2017-08-23T07:31:04.202Z,69952
2017-08-23T07:32:03.875Z,74208
2017-08-23T07:33:04.170Z,55968
2017-08-23T07:34:04.159Z,47520
2017-08-23T07:35:04.154Z,40864
2017-08-23T07:46:43.713Z,62464
2017-08-23T07:46:59.878Z,59776
2017-08-23T07:47:59.568Z,57952
2017-08-23T07:48:59.862Z,66880
2017-08-23T07:49:59.545Z,66112
2017-08-23T07:50:59.843Z,60384
2017-08-23T07:51:59.847Z,65184
2017-08-23T07:52:59.810Z,75136
2017-08-23T07:53:59.815Z,73952
2017-08-23T07:54:59.820Z,65312
2017-08-23T07:55:59.793Z,62784
2017-08-23T07:56:59.783Z,70816
2017-08-23T07:57:59.769Z,78368
2017-08-23T07:58:59.754Z,67744
2017-08-23T07:59:59.756Z,65952
2017-08-23T08:00:59.734Z,67136
2017-08-23T08:01:59.425Z,69760
2017-08-23T08:02:59.718Z,80384
2017-08-23T08:03:59.397Z,78880
2017-08-23T08:04:59.395Z,70592
2017-08-23T08:05:59.698Z,67872
2017-08-23T08:06:59.691Z,67072
2017-08-23T08:07:59.690Z,72256
2017-08-23T08:08:59.080Z,78944
2017-08-23T08:09:59.047Z,84416
2017-08-23T08:10:59.646Z,84192
2017-08-23T08:11:59.332Z,77248
2017-08-23T08:12:59.621Z,72832
2017-08-23T08:13:59.310Z,62656
2017-08-23T08:14:59.504Z,52096
2017-08-23T08:15:59.583Z,62496
2017-08-23T08:16:59.597Z,72992
2017-08-23T08:17:59.263Z,80064
2017-08-23T08:18:59.775Z,78528
2017-08-23T08:19:59.157Z,84928
2017-08-23T08:20:59.237Z,85792
2017-08-23T08:21:59.231Z,85472
2017-08-23T08:22:59.529Z,85888
2017-08-23T08:23:59.513Z,88384
2017-08-23T08:24:59.517Z,90944
2017-08-23T08:25:59.184Z,85024
2017-08-23T08:26:59.192Z,81760
2017-08-23T08:27:59.174Z,87968
2017-08-23T08:28:59.171Z,94080
2017-08-23T08:29:59.164Z,92992
2017-08-23T08:30:59.145Z,75936
2017-08-23T08:31:59.145Z,90528
2017-08-23T08:32:59.425Z,95520
2017-08-23T08:33:59.428Z,83840
2017-08-23T08:34:59.422Z,93504
2017-08-23T08:35:59.100Z,57760
2017-08-23T08:36:59.393Z,95104
2017-08-23T08:37:59.392Z,89344
2017-08-23T08:38:59.368Z,89312
2017-08-23T08:39:59.375Z,98528
2017-08-23T08:40:59.360Z,91552
2017-08-23T08:42:12.667Z,85536
2017-08-23T08:42:59.335Z,84544
2017-08-23T08:43:59.027Z,96224
2017-08-23T08:44:59.310Z,93344
2017-08-23T08:45:59.309Z,22080
2017-08-23T08:46:59.304Z,50912
2017-08-23T08:47:59.281Z,98432
2017-08-23T08:48:59.264Z,112768
2017-08-23T08:49:59.269Z,92000
2017-08-23T08:50:59.256Z,67424
2017-08-23T08:51:59.242Z,79136
2017-08-23T08:52:59.148Z,72896
2017-08-23T08:53:59.228Z,80736
2017-08-23T08:54:59.219Z,82624
2017-08-23T08:56:13.313Z,104416
2017-08-23T08:56:59.211Z,109568
2017-08-23T08:57:59.195Z,120864
2017-08-23T08:58:59.187Z,131968
2017-08-23T08:59:59.186Z,124768
2017-08-23T09:00:59.171Z,133696
2017-08-23T09:01:58.861Z,51616
2017-08-23T09:02:58.848Z,34688
2017-08-23T09:03:59.144Z,96704
2017-08-23T09:04:58.820Z,107168
2017-08-23T09:05:59.123Z,43744
2017-08-23T09:06:58.800Z,113888
2017-08-23T09:07:58.834Z,116832
2017-08-23T09:08:58.799Z,119072
2017-08-23T09:09:58.781Z,35968
2017-08-23T09:10:59.071Z,122848
2017-08-23T09:11:59.069Z,62400
2017-08-23T09:12:59.060Z,25440
2017-08-23T09:13:59.048Z,36512
2017-08-23T09:14:58.733Z,125216
2017-08-23T09:15:58.726Z,120320
2017-08-23T09:16:58.714Z,27552
2017-08-23T09:17:58.702Z,112672
2017-08-23T09:18:58.907Z,118816
2017-08-23T09:19:58.689Z,120096
2017-08-23T09:20:58.987Z,29440
2017-08-23T09:21:58.664Z,35072
2017-08-23T09:22:58.658Z,108864
2017-08-23T09:23:58.547Z,105984
2017-08-23T09:24:58.646Z,106464
2017-08-23T09:25:58.633Z,105472
2017-08-23T09:26:59.127Z,101312
2017-08-23T09:27:59.118Z,112192
2017-08-23T09:28:58.809Z,102752
2017-08-23T09:29:58.487Z,119776
2017-08-23T09:30:58.894Z,117856
2017-08-23T09:31:58.271Z,105248
2017-08-23T09:32:58.875Z,100512
2017-08-23T09:33:58.870Z,89504
2017-08-23T09:34:58.554Z,113888
2017-08-23T09:35:58.848Z,116992
2017-08-23T09:36:58.837Z,110624
2017-08-23T09:37:58.828Z,87904
2017-08-23T09:38:58.228Z,81024
2017-08-23T09:39:58.518Z,108736
2017-08-23T09:40:58.508Z,114976
2017-08-23T09:41:58.488Z,99104
2017-08-23T09:42:58.798Z,108896
2017-08-23T09:43:58.474Z,65216
2017-08-23T09:44:58.780Z,127456
2017-08-23T09:45:58.468Z,104480
2017-08-23T09:46:58.757Z,63360
2017-08-23T09:47:58.447Z,61280
2017-08-23T09:48:58.759Z,59648
2017-08-23T09:49:58.432Z,56960
2017-08-23T09:50:58.126Z,57216
2017-08-23T09:51:58.840Z,69856
2017-08-23T09:52:58.728Z,60864
2017-08-23T09:53:58.723Z,68800
2017-08-23T09:54:58.385Z,62048
2017-08-23T09:55:58.680Z,64128
2017-08-23T09:56:58.688Z,74848
2017-08-23T09:57:58.680Z,64256
2017-08-23T09:58:58.671Z,87072
2017-08-23T09:59:58.363Z,92896
2017-08-23T10:00:58.351Z,69984
2017-08-23T10:01:58.560Z,82048
2017-08-23T10:03:11.957Z,50048
2017-08-23T10:03:58.627Z,96384
2017-08-23T10:04:58.318Z,100704
2017-08-23T10:05:58.800Z,94624
2017-08-23T10:06:58.287Z,93600
2017-08-23T10:07:58.586Z,77120
2017-08-23T10:08:58.574Z,100928
2017-08-23T10:09:58.587Z,54592
2017-08-23T10:10:58.563Z,148000
2017-08-23T10:11:58.278Z,143712
2017-08-23T10:12:58.554Z,140864
2017-08-23T10:13:58.529Z,41056
2017-08-23T10:14:58.226Z,107872
2017-08-23T10:15:58.543Z,94464
2017-08-23T10:16:58.516Z,103776
2017-08-23T10:17:58.217Z,71904
2017-08-23T10:18:58.502Z,45024
2017-08-23T10:19:58.507Z,74496
2017-08-23T10:20:58.480Z,90016
2017-08-23T10:21:58.177Z,82240
2017-08-23T10:22:58.164Z,33632
2017-08-23T10:23:58.471Z,84512
2017-08-23T10:24:58.460Z,101088
2017-08-23T10:25:58.448Z,72544
2017-08-23T10:26:58.469Z,83040
2017-08-23T10:27:58.427Z,77088
2017-08-23T10:28:58.428Z,71168
2017-08-23T10:29:58.424Z,99392
2017-08-23T10:30:58.411Z,96000
2017-08-23T10:31:58.103Z,98144
2017-08-23T10:32:58.396Z,99520
2017-08-23T10:33:58.092Z,109568
2017-08-23T10:34:58.377Z,113632
2017-08-23T10:35:58.393Z,82016
2017-08-23T10:36:58.047Z,68992
2017-08-23T10:37:58.355Z,106272
2017-08-23T10:38:58.041Z,83360
2017-08-23T10:39:58.040Z,87584
2017-08-23T10:41:11.656Z,74400
2017-08-23T10:41:58.314Z,64096
2017-08-23T10:42:58.318Z,110304
2017-08-23T10:43:57.989Z,93024
2017-08-23T10:44:58.501Z,91584
2017-08-23T10:45:58.298Z,79424
2017-08-23T10:46:57.973Z,132032
2017-08-23T10:47:58.275Z,92192
2017-08-23T10:48:57.655Z,61504
2017-08-23T10:49:58.445Z,47712
2017-08-23T10:50:58.236Z,51168
2017-08-23T10:51:57.620Z,61536
2017-08-23T10:52:57.926Z,68288
2017-08-23T10:53:57.913Z,75072
2017-08-23T10:54:57.596Z,72160
2017-08-23T10:55:57.587Z,64672
2017-08-23T10:56:57.586Z,59040
2017-08-23T10:57:57.878Z,57440
2017-08-23T10:58:57.868Z,59680
2017-08-23T10:59:57.876Z,65920
2017-08-23T11:00:57.859Z,65984
2017-08-23T11:01:58.149Z,70912
2017-08-23T11:02:57.834Z,66752
2017-08-23T11:03:57.832Z,65248
2017-08-23T11:04:58.130Z,70560
2017-08-23T11:05:57.506Z,61696
2017-08-23T11:06:57.696Z,58624
2017-08-23T11:07:58.091Z,56480
2017-08-23T11:08:58.090Z,57376
2017-08-23T11:09:57.777Z,56160
2017-08-23T11:10:57.761Z,49440
2017-08-23T11:11:58.082Z,42240
2017-08-23T11:12:58.070Z,40224
2017-08-23T11:13:58.049Z,40736
2017-08-23T11:14:58.076Z,42304
2017-08-23T11:15:58.040Z,44576
2017-08-23T11:16:58.007Z,47072
2017-08-23T11:17:57.920Z,48608
2017-08-23T11:18:57.993Z,48864
2017-08-23T11:19:57.999Z,48640
2017-08-23T11:20:57.986Z,50880
2017-08-23T11:21:57.983Z,51872
2017-08-23T11:22:57.668Z,51168
2017-08-23T11:23:57.960Z,49216
2017-08-23T11:24:57.962Z,46944
2017-08-23T11:25:57.959Z,46016
2017-08-23T11:26:58.137Z,45728
2017-08-23T11:27:57.921Z,46304
2017-08-23T11:28:57.916Z,47200
2017-08-23T11:29:57.918Z,47424
2017-08-23T11:30:57.907Z,47232
2017-08-23T11:31:57.886Z,47392
2017-08-23T11:32:57.903Z,45824
2017-08-23T11:33:57.644Z,46592
2017-08-23T11:34:57.867Z,51776
2017-08-23T11:35:57.865Z,58400
2017-08-23T11:36:57.565Z,56032
2017-08-23T11:37:57.841Z,52320
2017-08-23T11:38:57.532Z,50560
2017-08-23T11:39:57.848Z,47136
2017-08-23T11:40:57.822Z,45696
2017-08-23T11:41:57.499Z,49856
2017-08-23T11:42:57.798Z,77632
2017-08-23T11:43:57.495Z,59360
2017-08-23T11:44:56.863Z,59328
2017-08-23T11:45:57.192Z,82240
2017-08-23T11:46:57.466Z,67904
2017-08-23T11:47:57.758Z,69472
2017-08-23T11:48:57.148Z,48864
2017-08-23T11:49:57.427Z,63040
2017-08-23T11:50:57.432Z,92960
2017-08-23T11:51:57.740Z,63520
2017-08-23T11:52:57.726Z,52032
2017-08-23T11:53:57.908Z,88864
2017-08-23T11:54:57.394Z,81824
2017-08-23T11:55:57.690Z,66784
2017-08-23T11:56:57.681Z,51552
2017-08-23T11:57:57.674Z,116928
2017-08-23T11:58:57.377Z,101888
2017-08-23T11:59:57.858Z,131552
2017-08-23T12:00:57.641Z,101344
2017-08-23T12:01:57.671Z,124000
2017-08-23T12:02:57.625Z,45856
2017-08-23T12:03:57.246Z,35904
2017-08-23T12:04:57.310Z,144512
2017-08-23T12:05:57.604Z,47264
2017-08-23T12:06:57.279Z,118720
2017-08-23T12:07:57.572Z,120928
2017-08-23T12:08:57.574Z,68416
2017-08-23T12:09:57.276Z,104096
2017-08-23T12:10:57.245Z,51424
2017-08-23T12:11:57.554Z,67200
2017-08-23T12:12:57.221Z,115712
2017-08-23T12:13:57.221Z,117824
2017-08-23T12:14:57.518Z,125792
2017-08-23T12:15:56.903Z,141664
2017-08-23T12:16:57.204Z,38208
2017-08-23T12:17:57.186Z,80864
2017-08-23T12:18:57.481Z,119264
2017-08-23T12:19:57.671Z,122912
2017-08-23T12:20:57.461Z,26816
2017-08-23T12:21:57.476Z,34944
2017-08-23T12:22:57.445Z,114848
2017-08-23T12:23:57.440Z,119648
2017-08-23T12:24:57.424Z,43776
2017-08-23T12:25:57.411Z,25024
2017-08-23T12:26:57.405Z,91168
2017-08-23T12:27:57.124Z,125376
2017-08-23T12:28:57.085Z,86976
2017-08-23T12:29:57.368Z,35296
2017-08-23T12:30:57.068Z,30112
2017-08-23T12:31:57.361Z,116640
2017-08-23T12:32:57.052Z,80544
2017-08-23T12:33:56.728Z,24896
2017-08-23T12:34:57.034Z,29568
2017-08-23T12:35:57.017Z,117152
2017-08-23T12:36:57.308Z,110464
2017-08-23T12:37:57.013Z,108384
2017-08-23T12:38:57.294Z,72832
2017-08-23T12:39:56.978Z,24256
2017-08-23T12:40:57.287Z,21888
2017-08-23T12:41:56.957Z,19040
2017-08-23T12:42:57.263Z,14672
2017-08-23T12:43:56.647Z,14628
2017-08-23T12:44:57.240Z,13460
2017-08-23T12:45:56.945Z,14440
2017-08-23T12:46:57.224Z,17824
2017-08-23T12:47:56.910Z,32640
2017-08-23T12:48:56.895Z,112672
2017-08-23T12:49:57.206Z,69792
2017-08-23T12:50:56.891Z,96000
2017-08-23T12:51:56.886Z,33984
2017-08-23T12:52:56.864Z,38784
2017-08-23T12:53:56.849Z,20224
2017-08-23T12:54:56.842Z,17108
2017-08-23T12:55:56.837Z,20448
2017-08-23T12:56:57.128Z,23584
2017-08-23T12:57:56.810Z,24416
2017-08-23T12:58:57.115Z,24448
2017-08-23T12:59:57.115Z,29088
2017-08-23T13:00:56.803Z,29728
2017-08-23T13:01:56.776Z,25536
2017-08-23T13:02:56.775Z,21920
2017-08-23T13:03:57.074Z,20768
2017-08-23T13:04:57.055Z,21184
2017-08-23T13:05:57.044Z,19456
2017-08-23T13:06:57.042Z,18144
2017-08-23T13:07:56.731Z,27776
2017-08-23T13:08:57.031Z,41984
2017-08-23T13:09:56.868Z,116672
2017-08-23T13:10:57.005Z,50880
2017-08-23T13:11:56.685Z,64544
2017-08-23T13:12:56.679Z,43136
2017-08-23T13:13:56.675Z,116704
2017-08-23T13:14:56.660Z,48864
2017-08-23T13:15:56.657Z,107936
2017-08-23T13:16:56.342Z,105024
2017-08-23T13:17:56.633Z,18464
2017-08-23T13:18:56.633Z,11632
2017-08-23T13:19:56.930Z,10404
2017-08-23T13:20:56.619Z,16572
2017-08-23T13:21:56.900Z,81344
2017-08-23T13:22:56.602Z,13912
2017-08-23T13:23:56.579Z,14052
2017-08-23T13:24:56.866Z,12772
2017-08-23T13:25:56.573Z,12820
2017-08-23T13:26:56.626Z,14700
2017-08-23T13:27:56.956Z,22976
2017-08-23T13:28:56.835Z,30368
2017-08-23T13:29:56.834Z,24032
2017-08-23T13:30:56.513Z,20256
2017-08-23T13:31:56.821Z,21920
2017-08-23T13:32:56.200Z,23456
2017-08-23T13:33:56.552Z,26144
2017-08-23T13:34:56.982Z,28352